sensor_id;sensor_type;location;lat;lon;timestamp;P1;P2;P0
77481;PMS5003;66582;43.004;-75.010;2023-04-24T00:02:01;7;7;
77481;PMS5003;66582;43.004;-75.010;2023-04-24T00:04:26;7;7;
77481;PMS5003;66582;43.004;-75.010;2023-04-24T00:06:51;8;8;
77481;PMS5003;66582;43.004;-75.010;2023-04-24T00:09:16;9;8;
77481;PMS5003;66582;43.004;-75.010;2023-04-24T00:11:41;9;9;
77481;PMS5003;66582;43.004;-75.010;2023-04-24T00:14:07;7;7;
77481;PMS5003;66582;43.004;-75.010;2023-04-24T00:16:32;7;7;
77481;PMS5003;66582;43.004;-75.010;2023-04-24T00:18:57;7;7;
77481;PMS5003;66582;43.004;-75.010;2023-04-24T00:21:22;7;7;
77481;PMS5003;66582;43.004;-75.010;2023-04-24T00:23:47;8;7;
77481;PMS5003;66582;43.004;-75.010;2023-04-24T00:26:13;8;8;
77481;PMS5003;66582;43.004;-75.010;2023-04-24T00:28:37;5;5;
77481;PMS5003;66582;43.004;-75.010;2023-04-24T00:31:03;7;7;
77481;PMS5003;66582;43.004;-75.010;2023-04-24T00:33:28;6;6;
77481;PMS5003;66582;43.004;-75.010;2023-04-24T00:35:53;8;8;
77481;PMS5003;66582;43.004;-75.010;2023-04-24T00:38:18;8;8;
77481;PMS5003;66582;43.004;-75.010;2023-04-24T00:40:43;7;6;
77481;PMS5003;66582;43.004;-75.010;2023-04-24T00:43:08;7;6;
77481;PMS5003;66582;43.004;-75.010;2023-04-24T00:45:34;8;8;
77481;PMS5003;66582;43.004;-75.010;2023-04-24T00:47:59;8;7;
77481;PMS5003;66582;43.004;-75.010;2023-04-24T00:50:24;9;9;
77481;PMS5003;66582;43.004;-75.010;2023-04-24T00:52:50;11;10;
77481;PMS5003;66582;43.004;-75.010;2023-04-24T00:55:15;7;7;
77481;PMS5003;66582;43.004;-75.010;2023-04-24T00:57:41;8;8;
77481;PMS5003;66582;43.004;-75.010;2023-04-24T01:00:07;12;11;
77481;PMS5003;66582;43.004;-75.010;2023-04-24T01:02:32;11;10;
77481;PMS5003;66582;43.004;-75.010;2023-04-24T01:04:57;9;9;
77481;PMS5003;66582;43.004;-75.010;2023-04-24T01:07:23;11;11;
77481;PMS5003;66582;43.004;-75.010;2023-04-24T01:09:48;10;10;
77481;PMS5003;66582;43.004;-75.010;2023-04-24T01:12:13;12;11;
77481;PMS5003;66582;43.004;-75.010;2023-04-24T01:14:38;11;11;
77481;PMS5003;66582;43.004;-75.010;2023-04-24T01:17:04;10;10;
77481;PMS5003;66582;43.004;-75.010;2023-04-24T01:19:29;10;10;
77481;PMS5003;66582;43.004;-75.010;2023-04-24T01:21:54;11;11;
77481;PMS5003;66582;43.004;-75.010;2023-04-24T01:24:20;11;11;
77481;PMS5003;66582;43.004;-75.010;2023-04-24T01:26:44;11;10;
77481;PMS5003;66582;43.004;-75.010;2023-04-24T01:29:10;12;11;
77481;PMS5003;66582;43.004;-75.010;2023-04-24T01:31:36;11;11;
77481;PMS5003;66582;43.004;-75.010;2023-04-24T01:34:01;12;12;
77481;PMS5003;66582;43.004;-75.010;2023-04-24T01:36:27;14;14;
77481;PMS5003;66582;43.004;-75.010;2023-04-24T01:38:53;15;15;
77481;PMS5003;66582;43.004;-75.010;2023-04-24T01:41:17;16;13;
77481;PMS5003;66582;43.004;-75.010;2023-04-24T01:43:43;20;18;
77481;PMS5003;66582;43.004;-75.010;2023-04-24T01:46:08;14;13;
77481;PMS5003;66582;43.004;-75.010;2023-04-24T01:48:34;14;13;
77481;PMS5003;66582;43.004;-75.010;2023-04-24T01:50:59;16;15;
77481;PMS5003;66582;43.004;-75.010;2023-04-24T01:53:24;17;17;
77481;PMS5003;66582;43.004;-75.010;2023-04-24T01:55:50;15;15;
77481;PMS5003;66582;43.004;-75.010;2023-04-24T01:58:15;18;17;
77481;PMS5003;66582;43.004;-75.010;2023-04-24T02:00:41;16;16;
77481;PMS5003;66582;43.004;-75.010;2023-04-24T02:03:06;17;16;
77481;PMS5003;66582;43.004;-75.010;2023-04-24T02:05:32;17;16;
77481;PMS5003;66582;43.004;-75.010;2023-04-24T02:07:57;16;15;
77481;PMS5003;66582;43.004;-75.010;2023-04-24T02:10:23;18;18;
77481;PMS5003;66582;43.004;-75.010;2023-04-24T02:12:48;16;16;
77481;PMS5003;66582;43.004;-75.010;2023-04-24T02:15:14;20;19;
77481;PMS5003;66582;43.004;-75.010;2023-04-24T02:17:39;18;18;
77481;PMS5003;66582;43.004;-75.010;2023-04-24T02:20:04;19;19;
77481;PMS5003;66582;43.004;-75.010;2023-04-24T02:22:29;18;18;
77481;PMS5003;66582;43.004;-75.010;2023-04-24T02:24:54;19;18;
77481;PMS5003;66582;43.004;-75.010;2023-04-24T02:27:20;18;17;
77481;PMS5003;66582;43.004;-75.010;2023-04-24T02:29:45;17;16;
77481;PMS5003;66582;43.004;-75.010;2023-04-24T02:32:10;17;17;
77481;PMS5003;66582;43.004;-75.010;2023-04-24T02:34:37;18;17;
77481;PMS5003;66582;43.004;-75.010;2023-04-24T02:37:01;19;18;
77481;PMS5003;66582;43.004;-75.010;2023-04-24T02:39:27;16;16;
77481;PMS5003;66582;43.004;-75.010;2023-04-24T02:41:52;17;16;
77481;PMS5003;66582;43.004;-75.010;2023-04-24T02:44:17;19;18;
77481;PMS5003;66582;43.004;-75.010;2023-04-24T02:46:42;17;16;
77481;PMS5003;66582;43.004;-75.010;2023-04-24T02:49:08;15;14;
77481;PMS5003;66582;43.004;-75.010;2023-04-24T02:51:33;15;15;
77481;PMS5003;66582;43.004;-75.010;2023-04-24T02:53:58;17;17;
77481;PMS5003;66582;43.004;-75.010;2023-04-24T02:56:23;20;17;
77481;PMS5003;66582;43.004;-75.010;2023-04-24T02:58:49;18;17;
77481;PMS5003;66582;43.004;-75.010;2023-04-24T03:01:14;19;19;
77481;PMS5003;66582;43.004;-75.010;2023-04-24T03:03:39;18;16;
77481;PMS5003;66582;43.004;-75.010;2023-04-24T03:06:05;19;18;
77481;PMS5003;66582;43.004;-75.010;2023-04-24T03:08:30;18;18;
77481;PMS5003;66582;43.004;-75.010;2023-04-24T03:10:56;18;18;
77481;PMS5003;66582;43.004;-75.010;2023-04-24T03:13:21;19;19;
77481;PMS5003;66582;43.004;-75.010;2023-04-24T03:15:46;18;17;
77481;PMS5003;66582;43.004;-75.010;2023-04-24T03:18:11;19;18;
77481;PMS5003;66582;43.004;-75.010;2023-04-24T03:20:39;18;18;
77481;PMS5003;66582;43.004;-75.010;2023-04-24T03:23:02;16;16;
77481;PMS5003;66582;43.004;-75.010;2023-04-24T03:25:28;18;18;
77481;PMS5003;66582;43.004;-75.010;2023-04-24T03:27:53;18;17;
77481;PMS5003;66582;43.004;-75.010;2023-04-24T03:30:18;17;16;
77481;PMS5003;66582;43.004;-75.010;2023-04-24T03:32:44;17;17;
77481;PMS5003;66582;43.004;-75.010;2023-04-24T03:35:09;18;17;
77481;PMS5003;66582;43.004;-75.010;2023-04-24T03:37:35;19;19;
77481;PMS5003;66582;43.004;-75.010;2023-04-24T03:40:00;19;19;
77481;PMS5003;66582;43.004;-75.010;2023-04-24T03:42:26;19;19;
77481;PMS5003;66582;43.004;-75.010;2023-04-24T03:44:51;22;20;
77481;PMS5003;66582;43.004;-75.010;2023-04-24T03:47:16;22;21;
77481;PMS5003;66582;43.004;-75.010;2023-04-24T03:49:42;22;20;
77481;PMS5003;66582;43.004;-75.010;2023-04-24T03:52:07;20;18;
77481;PMS5003;66582;43.004;-75.010;2023-04-24T03:54:32;21;19;
77481;PMS5003;66582;43.004;-75.010;2023-04-24T03:56:57;20;19;
77481;PMS5003;66582;43.004;-75.010;2023-04-24T03:59:23;22;18;
77481;PMS5003;66582;43.004;-75.010;2023-04-24T04:01:48;21;19;
77481;PMS5003;66582;43.004;-75.010;2023-04-24T04:04:14;20;19;
77481;PMS5003;66582;43.004;-75.010;2023-04-24T04:06:39;20;19;
77481;PMS5003;66582;43.004;-75.010;2023-04-24T04:09:05;20;19;
77481;PMS5003;66582;43.004;-75.010;2023-04-24T04:11:30;20;19;
77481;PMS5003;66582;43.004;-75.010;2023-04-24T04:13:55;17;17;
77481;PMS5003;66582;43.004;-75.010;2023-04-24T04:16:20;18;18;
77481;PMS5003;66582;43.004;-75.010;2023-04-24T04:18:46;19;19;
77481;PMS5003;66582;43.004;-75.010;2023-04-24T04:21:11;21;19;
77481;PMS5003;66582;43.004;-75.010;2023-04-24T04:23:36;19;18;
77481;PMS5003;66582;43.004;-75.010;2023-04-24T04:26:02;20;20;
77481;PMS5003;66582;43.004;-75.010;2023-04-24T04:28:28;19;19;
77481;PMS5003;66582;43.004;-75.010;2023-04-24T04:30:53;19;16;
77481;PMS5003;66582;43.004;-75.010;2023-04-24T04:33:19;19;19;
77481;PMS5003;66582;43.004;-75.010;2023-04-24T04:35:44;17;17;
77481;PMS5003;66582;43.004;-75.010;2023-04-24T04:38:09;21;20;
77481;PMS5003;66582;43.004;-75.010;2023-04-24T04:40:35;18;18;
77481;PMS5003;66582;43.004;-75.010;2023-04-24T04:43:00;20;18;
77481;PMS5003;66582;43.004;-75.010;2023-04-24T04:45:25;19;18;
77481;PMS5003;66582;43.004;-75.010;2023-04-24T04:47:50;21;20;
77481;PMS5003;66582;43.004;-75.010;2023-04-24T04:50:16;19;18;
77481;PMS5003;66582;43.004;-75.010;2023-04-24T04:52:42;20;18;
77481;PMS5003;66582;43.004;-75.010;2023-04-24T04:55:08;20;18;
77481;PMS5003;66582;43.004;-75.010;2023-04-24T04:57:32;18;17;
77481;PMS5003;66582;43.004;-75.010;2023-04-24T04:59:58;19;19;
77481;PMS5003;66582;43.004;-75.010;2023-04-24T05:02:24;21;19;
77481;PMS5003;66582;43.004;-75.010;2023-04-24T05:04:49;24;20;
77481;PMS5003;66582;43.004;-75.010;2023-04-24T05:07:14;27;26;
77481;PMS5003;66582;43.004;-75.010;2023-04-24T05:09:40;25;24;
77481;PMS5003;66582;43.004;-75.010;2023-04-24T05:12:05;21;20;
77481;PMS5003;66582;43.004;-75.010;2023-04-24T05:14:31;22;20;
77481;PMS5003;66582;43.004;-75.010;2023-04-24T05:16:56;20;19;
77481;PMS5003;66582;43.004;-75.010;2023-04-24T05:19:22;17;17;
77481;PMS5003;66582;43.004;-75.010;2023-04-24T05:21:48;24;18;
77481;PMS5003;66582;43.004;-75.010;2023-04-24T05:24:13;23;21;
77481;PMS5003;66582;43.004;-75.010;2023-04-24T05:26:38;24;21;
77481;PMS5003;66582;43.004;-75.010;2023-04-24T05:29:05;23;22;
77481;PMS5003;66582;43.004;-75.010;2023-04-24T05:31:31;17;17;
77481;PMS5003;66582;43.004;-75.010;2023-04-24T05:33:55;23;22;
77481;PMS5003;66582;43.004;-75.010;2023-04-24T05:36:21;20;20;
77481;PMS5003;66582;43.004;-75.010;2023-04-24T05:38:47;21;20;
77481;PMS5003;66582;43.004;-75.010;2023-04-24T05:41:12;20;18;
77481;PMS5003;66582;43.004;-75.010;2023-04-24T05:43:38;19;17;
77481;PMS5003;66582;43.004;-75.010;2023-04-24T05:46:03;22;20;
77481;PMS5003;66582;43.004;-75.010;2023-04-24T05:48:29;18;18;
77481;PMS5003;66582;43.004;-75.010;2023-04-24T05:50:54;16;16;
77481;PMS5003;66582;43.004;-75.010;2023-04-24T05:53:19;21;21;
77481;PMS5003;66582;43.004;-75.010;2023-04-24T05:55:44;19;18;
77481;PMS5003;66582;43.004;-75.010;2023-04-24T05:58:10;22;21;
77481;PMS5003;66582;43.004;-75.010;2023-04-24T06:00:35;20;18;
77481;PMS5003;66582;43.004;-75.010;2023-04-24T06:03:00;20;18;
77481;PMS5003;66582;43.004;-75.010;2023-04-24T06:05:26;17;17;
77481;PMS5003;66582;43.004;-75.010;2023-04-24T06:07:51;22;20;
77481;PMS5003;66582;43.004;-75.010;2023-04-24T06:10:17;21;19;
77481;PMS5003;66582;43.004;-75.010;2023-04-24T06:12:43;23;20;
77481;PMS5003;66582;43.004;-75.010;2023-04-24T06:15:09;21;20;
77481;PMS5003;66582;43.004;-75.010;2023-04-24T06:17:34;22;22;
77481;PMS5003;66582;43.004;-75.010;2023-04-24T06:19:59;24;22;
77481;PMS5003;66582;43.004;-75.010;2023-04-24T06:22:25;26;24;
77481;PMS5003;66582;43.004;-75.010;2023-04-24T06:24:50;23;22;
77481;PMS5003;66582;43.004;-75.010;2023-04-24T06:27:15;20;19;
77481;PMS5003;66582;43.004;-75.010;2023-04-24T06:29:41;24;22;
77481;PMS5003;66582;43.004;-75.010;2023-04-24T06:32:07;24;23;
77481;PMS5003;66582;43.004;-75.010;2023-04-24T06:34:32;23;21;
77481;PMS5003;66582;43.004;-75.010;2023-04-24T06:36:58;26;24;
77481;PMS5003;66582;43.004;-75.010;2023-04-24T06:39:23;25;24;
77481;PMS5003;66582;43.004;-75.010;2023-04-24T06:41:49;24;21;
77481;PMS5003;66582;43.004;-75.010;2023-04-24T06:44:14;27;26;
77481;PMS5003;66582;43.004;-75.010;2023-04-24T06:46:39;20;20;
77481;PMS5003;66582;43.004;-75.010;2023-04-24T06:49:05;26;25;
77481;PMS5003;66582;43.004;-75.010;2023-04-24T06:51:31;25;21;
77481;PMS5003;66582;43.004;-75.010;2023-04-24T06:53:56;24;20;
77481;PMS5003;66582;43.004;-75.010;2023-04-24T06:56:21;21;21;
77481;PMS5003;66582;43.004;-75.010;2023-04-24T06:58:47;25;23;
77481;PMS5003;66582;43.004;-75.010;2023-04-24T07:01:12;25;23;
77481;PMS5003;66582;43.004;-75.010;2023-04-24T07:03:38;19;19;
77481;PMS5003;66582;43.004;-75.010;2023-04-24T07:06:03;21;20;
77481;PMS5003;66582;43.004;-75.010;2023-04-24T07:08:28;25;24;
77481;PMS5003;66582;43.004;-75.010;2023-04-24T07:10:54;23;22;
77481;PMS5003;66582;43.004;-75.010;2023-04-24T07:13:19;20;20;
77481;PMS5003;66582;43.004;-75.010;2023-04-24T07:15:44;24;23;
77481;PMS5003;66582;43.004;-75.010;2023-04-24T07:18:10;22;22;
77481;PMS5003;66582;43.004;-75.010;2023-04-24T07:20:35;20;20;
77481;PMS5003;66582;43.004;-75.010;2023-04-24T07:23:02;19;19;
77481;PMS5003;66582;43.004;-75.010;2023-04-24T07:25:26;23;23;
77481;PMS5003;66582;43.004;-75.010;2023-04-24T07:27:53;21;21;
77481;PMS5003;66582;43.004;-75.010;2023-04-24T07:30:17;23;21;
77481;PMS5003;66582;43.004;-75.010;2023-04-24T07:32:43;19;19;
77481;PMS5003;66582;43.004;-75.010;2023-04-24T07:35:08;18;18;
77481;PMS5003;66582;43.004;-75.010;2023-04-24T07:37:33;22;21;
77481;PMS5003;66582;43.004;-75.010;2023-04-24T07:39:58;21;20;
77481;PMS5003;66582;43.004;-75.010;2023-04-24T07:42:24;19;16;
77481;PMS5003;66582;43.004;-75.010;2023-04-24T07:44:49;21;20;
77481;PMS5003;66582;43.004;-75.010;2023-04-24T07:47:14;19;19;
77481;PMS5003;66582;43.004;-75.010;2023-04-24T07:49:40;23;23;
77481;PMS5003;66582;43.004;-75.010;2023-04-24T07:52:05;22;21;
77481;PMS5003;66582;43.004;-75.010;2023-04-24T07:54:31;21;20;
77481;PMS5003;66582;43.004;-75.010;2023-04-24T07:56:56;21;21;
77481;PMS5003;66582;43.004;-75.010;2023-04-24T07:59:21;22;22;
77481;PMS5003;66582;43.004;-75.010;2023-04-24T08:01:46;22;21;
77481;PMS5003;66582;43.004;-75.010;2023-04-24T08:04:12;23;21;
77481;PMS5003;66582;43.004;-75.010;2023-04-24T08:06:38;24;24;
77481;PMS5003;66582;43.004;-75.010;2023-04-24T08:09:03;23;23;
77481;PMS5003;66582;43.004;-75.010;2023-04-24T08:11:29;26;24;
77481;PMS5003;66582;43.004;-75.010;2023-04-24T08:13:54;25;23;
77481;PMS5003;66582;43.004;-75.010;2023-04-24T08:16:20;22;22;
77481;PMS5003;66582;43.004;-75.010;2023-04-24T08:18:46;22;22;
77481;PMS5003;66582;43.004;-75.010;2023-04-24T08:21:11;20;19;
77481;PMS5003;66582;43.004;-75.010;2023-04-24T08:23:37;20;20;
77481;PMS5003;66582;43.004;-75.010;2023-04-24T08:26:02;21;19;
77481;PMS5003;66582;43.004;-75.010;2023-04-24T08:28:28;20;18;
77481;PMS5003;66582;43.004;-75.010;2023-04-24T08:30:53;18;18;
77481;PMS5003;66582;43.004;-75.010;2023-04-24T08:33:19;16;15;
77481;PMS5003;66582;43.004;-75.010;2023-04-24T08:35:44;19;18;
77481;PMS5003;66582;43.004;-75.010;2023-04-24T08:38:09;16;16;
77481;PMS5003;66582;43.004;-75.010;2023-04-24T08:40:35;17;16;
77481;PMS5003;66582;43.004;-75.010;2023-04-24T08:43:00;16;16;
77481;PMS5003;66582;43.004;-75.010;2023-04-24T08:45:26;18;15;
77481;PMS5003;66582;43.004;-75.010;2023-04-24T08:47:51;24;19;
77481;PMS5003;66582;43.004;-75.010;2023-04-24T08:50:16;17;16;
77481;PMS5003;66582;43.004;-75.010;2023-04-24T08:52:42;16;16;
77481;PMS5003;66582;43.004;-75.010;2023-04-24T08:55:07;15;15;
77481;PMS5003;66582;43.004;-75.010;2023-04-24T08:57:32;17;16;
77481;PMS5003;66582;43.004;-75.010;2023-04-24T08:59:58;16;15;
77481;PMS5003;66582;43.004;-75.010;2023-04-24T09:02:24;17;17;
77481;PMS5003;66582;43.004;-75.010;2023-04-24T09:04:49;18;17;
77481;PMS5003;66582;43.004;-75.010;2023-04-24T09:07:14;18;17;
77481;PMS5003;66582;43.004;-75.010;2023-04-24T09:09:39;20;19;
77481;PMS5003;66582;43.004;-75.010;2023-04-24T09:12:04;18;16;
77481;PMS5003;66582;43.004;-75.010;2023-04-24T09:14:29;20;19;
77481;PMS5003;66582;43.004;-75.010;2023-04-24T09:16:54;22;20;
77481;PMS5003;66582;43.004;-75.010;2023-04-24T09:19:19;18;18;
77481;PMS5003;66582;43.004;-75.010;2023-04-24T09:21:45;19;19;
77481;PMS5003;66582;43.004;-75.010;2023-04-24T09:24:14;19;18;
77481;PMS5003;66582;43.004;-75.010;2023-04-24T09:26:35;20;18;
77481;PMS5003;66582;43.004;-75.010;2023-04-24T09:29:00;20;19;
77481;PMS5003;66582;43.004;-75.010;2023-04-24T09:31:26;21;20;
77481;PMS5003;66582;43.004;-75.010;2023-04-24T09:33:56;22;21;
77481;PMS5003;66582;43.004;-75.010;2023-04-24T09:36:17;22;19;
77481;PMS5003;66582;43.004;-75.010;2023-04-24T09:38:42;19;18;
77481;PMS5003;66582;43.004;-75.010;2023-04-24T09:41:08;18;18;
77481;PMS5003;66582;43.004;-75.010;2023-04-24T09:43:33;20;19;
77481;PMS5003;66582;43.004;-75.010;2023-04-24T09:45:58;20;18;
77481;PMS5003;66582;43.004;-75.010;2023-04-24T09:50:49;18;18;
77481;PMS5003;66582;43.004;-75.010;2023-04-24T09:53:15;21;19;
77481;PMS5003;66582;43.004;-75.010;2023-04-24T09:55:42;22;18;
77481;PMS5003;66582;43.004;-75.010;2023-04-24T09:58:07;23;21;
77481;PMS5003;66582;43.004;-75.010;2023-04-24T10:00:32;25;24;
77481;PMS5003;66582;43.004;-75.010;2023-04-24T10:02:57;24;21;
77481;PMS5003;66582;43.004;-75.010;2023-04-24T10:05:24;22;21;
77481;PMS5003;66582;43.004;-75.010;2023-04-24T10:07:47;20;20;
77481;PMS5003;66582;43.004;-75.010;2023-04-24T10:10:13;21;20;
77481;PMS5003;66582;43.004;-75.010;2023-04-24T10:12:39;18;18;
77481;PMS5003;66582;43.004;-75.010;2023-04-24T10:15:04;21;20;
77481;PMS5003;66582;43.004;-75.010;2023-04-24T10:17:29;18;18;
77481;PMS5003;66582;43.004;-75.010;2023-04-24T10:19:55;25;23;
77481;PMS5003;66582;43.004;-75.010;2023-04-24T10:22:21;19;19;
77481;PMS5003;66582;43.004;-75.010;2023-04-24T10:24:46;22;21;
77481;PMS5003;66582;43.004;-75.010;2023-04-24T10:27:12;18;18;
77481;PMS5003;66582;43.004;-75.010;2023-04-24T10:29:37;21;20;
77481;PMS5003;66582;43.004;-75.010;2023-04-24T10:32:03;21;20;
77481;PMS5003;66582;43.004;-75.010;2023-04-24T10:34:28;17;17;
77481;PMS5003;66582;43.004;-75.010;2023-04-24T10:36:54;21;20;
77481;PMS5003;66582;43.004;-75.010;2023-04-24T10:39:19;22;20;
77481;PMS5003;66582;43.004;-75.010;2023-04-24T10:41:44;20;20;
77481;PMS5003;66582;43.004;-75.010;2023-04-24T10:44:10;20;20;
77481;PMS5003;66582;43.004;-75.010;2023-04-24T10:46:35;21;20;
77481;PMS5003;66582;43.004;-75.010;2023-04-24T10:49:03;20;20;
77481;PMS5003;66582;43.004;-75.010;2023-04-24T10:53:52;22;22;
77481;PMS5003;66582;43.004;-75.010;2023-04-24T10:56:17;17;17;
77481;PMS5003;66582;43.004;-75.010;2023-04-24T10:58:43;20;19;
77481;PMS5003;66582;43.004;-75.010;2023-04-24T11:01:08;17;17;
77481;PMS5003;66582;43.004;-75.010;2023-04-24T11:03:34;16;16;
77481;PMS5003;66582;43.004;-75.010;2023-04-24T11:06:00;18;18;
77481;PMS5003;66582;43.004;-75.010;2023-04-24T11:08:27;18;17;
77481;PMS5003;66582;43.004;-75.010;2023-04-24T11:10:54;18;16;
77481;PMS5003;66582;43.004;-75.010;2023-04-24T11:13:16;19;16;
77481;PMS5003;66582;43.004;-75.010;2023-04-24T11:15:41;19;19;
77481;PMS5003;66582;43.004;-75.010;2023-04-24T11:18:06;20;19;
77481;PMS5003;66582;43.004;-75.010;2023-04-24T11:20:32;22;20;
77481;PMS5003;66582;43.004;-75.010;2023-04-24T11:23:00;17;17;
77481;PMS5003;66582;43.004;-75.010;2023-04-24T11:25:24;18;18;
77481;PMS5003;66582;43.004;-75.010;2023-04-24T11:27:49;25;23;
77481;PMS5003;66582;43.004;-75.010;2023-04-24T11:30:17;20;18;
77481;PMS5003;66582;43.004;-75.010;2023-04-24T11:32:40;22;21;
77481;PMS5003;66582;43.004;-75.010;2023-04-24T11:35:06;18;17;
77481;PMS5003;66582;43.004;-75.010;2023-04-24T11:37:34;22;19;
77481;PMS5003;66582;43.004;-75.010;2023-04-24T11:39:56;22;22;
77481;PMS5003;66582;43.004;-75.010;2023-04-24T11:42:21;23;22;
77481;PMS5003;66582;43.004;-75.010;2023-04-24T11:44:46;20;20;
77481;PMS5003;66582;43.004;-75.010;2023-04-24T11:47:12;26;23;
77481;PMS5003;66582;43.004;-75.010;2023-04-24T11:49:38;21;19;
77481;PMS5003;66582;43.004;-75.010;2023-04-24T11:52:03;23;21;
77481;PMS5003;66582;43.004;-75.010;2023-04-24T11:54:28;22;21;
77481;PMS5003;66582;43.004;-75.010;2023-04-24T11:56:53;21;20;
77481;PMS5003;66582;43.004;-75.010;2023-04-24T11:59:20;25;23;
77481;PMS5003;66582;43.004;-75.010;2023-04-24T12:01:45;26;25;
77481;PMS5003;66582;43.004;-75.010;2023-04-24T12:04:11;23;23;
77481;PMS5003;66582;43.004;-75.010;2023-04-24T12:06:35;24;24;
77481;PMS5003;66582;43.004;-75.010;2023-04-24T12:09:01;22;22;
77481;PMS5003;66582;43.004;-75.010;2023-04-24T12:11:26;22;22;
77481;PMS5003;66582;43.004;-75.010;2023-04-24T12:13:52;25;24;
77481;PMS5003;66582;43.004;-75.010;2023-04-24T12:16:17;28;26;
77481;PMS5003;66582;43.004;-75.010;2023-04-24T12:18:43;24;21;
77481;PMS5003;66582;43.004;-75.010;2023-04-24T12:21:15;22;22;
77481;PMS5003;66582;43.004;-75.010;2023-04-24T12:23:34;23;23;
77481;PMS5003;66582;43.004;-75.010;2023-04-24T12:25:59;20;20;
77481;PMS5003;66582;43.004;-75.010;2023-04-24T12:28:24;23;23;
77481;PMS5003;66582;43.004;-75.010;2023-04-24T12:30:49;23;22;
77481;PMS5003;66582;43.004;-75.010;2023-04-24T12:33:17;22;21;
77481;PMS5003;66582;43.004;-75.010;2023-04-24T12:35:40;23;21;
77481;PMS5003;66582;43.004;-75.010;2023-04-24T12:38:05;23;22;
77481;PMS5003;66582;43.004;-75.010;2023-04-24T12:40:31;18;18;
77481;PMS5003;66582;43.004;-75.010;2023-04-24T12:42:57;26;24;
77481;PMS5003;66582;43.004;-75.010;2023-04-24T12:45:22;26;23;
77481;PMS5003;66582;43.004;-75.010;2023-04-24T12:47:48;25;21;
77481;PMS5003;66582;43.004;-75.010;2023-04-24T12:50:13;23;22;
77481;PMS5003;66582;43.004;-75.010;2023-04-24T12:52:38;25;23;
77481;PMS5003;66582;43.004;-75.010;2023-04-24T12:55:05;20;19;
77481;PMS5003;66582;43.004;-75.010;2023-04-24T12:57:30;22;22;
77481;PMS5003;66582;43.004;-75.010;2023-04-24T12:59:55;22;22;
77481;PMS5003;66582;43.004;-75.010;2023-04-24T13:02:20;20;20;
77481;PMS5003;66582;43.004;-75.010;2023-04-24T13:04:46;24;23;
77481;PMS5003;66582;43.004;-75.010;2023-04-24T13:07:11;26;23;
77481;PMS5003;66582;43.004;-75.010;2023-04-24T13:09:37;24;21;
77481;PMS5003;66582;43.004;-75.010;2023-04-24T13:12:03;22;22;
77481;PMS5003;66582;43.004;-75.010;2023-04-24T13:14:28;23;22;
77481;PMS5003;66582;43.004;-75.010;2023-04-24T13:16:54;21;21;
77481;PMS5003;66582;43.004;-75.010;2023-04-24T13:19:19;20;20;
77481;PMS5003;66582;43.004;-75.010;2023-04-24T13:21:45;22;22;
77481;PMS5003;66582;43.004;-75.010;2023-04-24T13:24:10;24;22;
77481;PMS5003;66582;43.004;-75.010;2023-04-24T13:26:35;22;22;
77481;PMS5003;66582;43.004;-75.010;2023-04-24T13:29:01;20;19;
77481;PMS5003;66582;43.004;-75.010;2023-04-24T13:31:26;23;21;
77481;PMS5003;66582;43.004;-75.010;2023-04-24T13:33:52;20;20;
77481;PMS5003;66582;43.004;-75.010;2023-04-24T13:36:18;22;22;
77481;PMS5003;66582;43.004;-75.010;2023-04-24T13:38:44;21;21;
77481;PMS5003;66582;43.004;-75.010;2023-04-24T13:41:09;22;21;
77481;PMS5003;66582;43.004;-75.010;2023-04-24T13:43:35;20;19;
77481;PMS5003;66582;43.004;-75.010;2023-04-24T13:46:00;20;20;
77481;PMS5003;66582;43.004;-75.010;2023-04-24T13:48:25;19;19;
77481;PMS5003;66582;43.004;-75.010;2023-04-24T13:50:51;21;20;
77481;PMS5003;66582;43.004;-75.010;2023-04-24T13:53:16;22;21;
77481;PMS5003;66582;43.004;-75.010;2023-04-24T13:55:42;22;22;
77481;PMS5003;66582;43.004;-75.010;2023-04-24T13:58:08;21;20;
77481;PMS5003;66582;43.004;-75.010;2023-04-24T14:00:33;21;21;
77481;PMS5003;66582;43.004;-75.010;2023-04-24T14:02:59;21;20;
77481;PMS5003;66582;43.004;-75.010;2023-04-24T14:05:24;23;21;
77481;PMS5003;66582;43.004;-75.010;2023-04-24T14:07:50;18;18;
77481;PMS5003;66582;43.004;-75.010;2023-04-24T14:10:15;24;22;
77481;PMS5003;66582;43.004;-75.010;2023-04-24T14:12:40;17;17;
77481;PMS5003;66582;43.004;-75.010;2023-04-24T14:15:07;19;19;
77481;PMS5003;66582;43.004;-75.010;2023-04-24T14:17:31;23;21;
77481;PMS5003;66582;43.004;-75.010;2023-04-24T14:19:56;22;21;
77481;PMS5003;66582;43.004;-75.010;2023-04-24T14:22:22;16;16;
77481;PMS5003;66582;43.004;-75.010;2023-04-24T14:24:47;19;19;
77481;PMS5003;66582;43.004;-75.010;2023-04-24T14:27:12;17;17;
77481;PMS5003;66582;43.004;-75.010;2023-04-24T14:29:38;20;19;
77481;PMS5003;66582;43.004;-75.010;2023-04-24T14:32:03;19;19;
77481;PMS5003;66582;43.004;-75.010;2023-04-24T14:34:28;20;20;
77481;PMS5003;66582;43.004;-75.010;2023-04-24T14:36:53;21;21;
77481;PMS5003;66582;43.004;-75.010;2023-04-24T14:39:19;21;21;
77481;PMS5003;66582;43.004;-75.010;2023-04-24T14:41:44;21;21;
77481;PMS5003;66582;43.004;-75.010;2023-04-24T14:44:09;20;19;
77481;PMS5003;66582;43.004;-75.010;2023-04-24T14:46:34;19;19;
77481;PMS5003;66582;43.004;-75.010;2023-04-24T14:49:00;17;16;
77481;PMS5003;66582;43.004;-75.010;2023-04-24T14:51:25;18;17;
77481;PMS5003;66582;43.004;-75.010;2023-04-24T14:53:51;17;16;
77481;PMS5003;66582;43.004;-75.010;2023-04-24T14:56:16;19;19;
77481;PMS5003;66582;43.004;-75.010;2023-04-24T14:58:42;19;18;
77481;PMS5003;66582;43.004;-75.010;2023-04-24T15:01:07;17;17;
77481;PMS5003;66582;43.004;-75.010;2023-04-24T15:03:36;18;18;
77481;PMS5003;66582;43.004;-75.010;2023-04-24T15:05:57;16;14;
77481;PMS5003;66582;43.004;-75.010;2023-04-24T15:08:22;17;17;
77481;PMS5003;66582;43.004;-75.010;2023-04-24T15:10:48;19;18;
77481;PMS5003;66582;43.004;-75.010;2023-04-24T15:13:14;16;15;
77481;PMS5003;66582;43.004;-75.010;2023-04-24T15:15:38;17;17;
77481;PMS5003;66582;43.004;-75.010;2023-04-24T15:18:04;15;15;
77481;PMS5003;66582;43.004;-75.010;2023-04-24T15:20:29;17;15;
77481;PMS5003;66582;43.004;-75.010;2023-04-24T15:22:54;16;16;
77481;PMS5003;66582;43.004;-75.010;2023-04-24T15:25:19;17;16;
77481;PMS5003;66582;43.004;-75.010;2023-04-24T15:27:45;16;16;
77481;PMS5003;66582;43.004;-75.010;2023-04-24T15:30:11;17;17;
77481;PMS5003;66582;43.004;-75.010;2023-04-24T15:32:35;15;14;
77481;PMS5003;66582;43.004;-75.010;2023-04-24T15:35:01;16;16;
77481;PMS5003;66582;43.004;-75.010;2023-04-24T15:37:26;14;14;
77481;PMS5003;66582;43.004;-75.010;2023-04-24T15:39:51;14;14;